createdAt,value
2019-02-25T00:01:52.191Z,66.10
2019-02-25T00:04:20.321Z,66.30
2019-02-25T00:06:48.643Z,66.60
2019-02-25T00:09:16.870Z,66.60
2019-02-25T00:11:45.088Z,67.30
2019-02-25T00:14:13.320Z,66.70
2019-02-25T00:16:41.606Z,66.70
2019-02-25T00:19:09.763Z,66.70
2019-02-25T00:21:37.980Z,66.80
2019-02-25T00:24:06.159Z,66.90
2019-02-25T00:26:34.475Z,66.80
2019-02-25T00:29:02.632Z,66.90
2019-02-25T00:31:30.954Z,66.90
2019-02-25T00:33:59.112Z,67.00
2019-02-25T00:36:27.342Z,66.90
2019-02-25T00:38:55.504Z,66.80
2019-02-25T00:41:23.737Z,67.00
2019-02-25T00:43:51.909Z,66.90
2019-02-25T00:46:20.132Z,67.20
2019-02-25T00:48:48.296Z,67.30
2019-02-25T00:51:16.535Z,67.40
2019-02-25T00:53:44.722Z,67.50
2019-02-25T00:56:12.932Z,67.30
2019-02-25T00:58:41.265Z,67.30
2019-02-25T01:01:09.490Z,67.40
2019-02-25T01:03:37.717Z,67.30
2019-02-25T01:06:05.941Z,66.70
2019-02-25T01:08:34.186Z,66.30
2019-02-25T01:11:02.408Z,66.10
2019-02-25T01:13:30.624Z,65.90
2019-02-25T01:15:58.879Z,65.90
2019-02-25T01:18:27.131Z,65.90
2019-02-25T01:20:55.331Z,66.00
2019-02-25T01:23:23.523Z,66.30
2019-02-25T01:25:51.738Z,66.50
2019-02-25T01:28:19.991Z,66.70
2019-02-25T01:30:48.194Z,66.60
2019-02-25T01:33:16.420Z,66.60
2019-02-25T01:35:44.589Z,66.70
2019-02-25T01:38:12.799Z,66.90
2019-02-25T01:40:40.950Z,66.70
2019-02-25T01:43:09.289Z,66.90
2019-02-25T01:45:37.500Z,67.00
2019-02-25T01:48:05.711Z,66.80
2019-02-25T01:50:33.917Z,66.60
2019-02-25T01:53:02.101Z,66.70
2019-02-25T01:55:30.269Z,66.80
2019-02-25T01:57:58.470Z,66.70
2019-02-25T02:00:26.640Z,66.60
2019-02-25T02:02:54.817Z,66.60
2019-02-25T02:05:24.545Z,66.60
2019-02-25T02:07:53.089Z,66.70
2019-02-25T02:10:21.367Z,67.00
2019-02-25T02:12:49.563Z,66.80
2019-02-25T02:15:17.838Z,67.00
2019-02-25T02:17:46.006Z,67.20
2019-02-25T02:20:14.750Z,67.20
2019-02-25T02:22:42.998Z,67.20
2019-02-25T02:25:11.309Z,66.90
2019-02-25T02:27:39.570Z,67.10
2019-02-25T02:30:12.019Z,67.00
2019-02-25T02:32:40.252Z,67.00
2019-02-25T02:35:08.546Z,67.00
2019-02-25T02:37:36.711Z,67.00
2019-02-25T02:40:05.778Z,67.00
2019-02-25T02:42:34.164Z,67.20
2019-02-25T02:45:35.209Z,67.30
2019-02-25T02:48:20.612Z,67.30
2019-02-25T02:50:48.750Z,67.30
2019-02-25T02:53:16.974Z,67.40
2019-02-25T02:55:45.200Z,67.80
2019-02-25T02:58:13.405Z,67.80
2019-02-25T03:00:41.662Z,67.80
2019-02-25T03:03:10.005Z,67.90
2019-02-25T03:05:38.233Z,67.90
2019-02-25T03:08:06.598Z,68.50
2019-02-25T03:10:34.892Z,67.90
2019-02-25T03:13:03.104Z,68.30
2019-02-25T03:15:31.337Z,68.50
2019-02-25T03:17:59.518Z,68.40
2019-02-25T03:20:27.720Z,68.70
2019-02-25T03:22:55.997Z,68.80
2019-02-25T03:25:24.367Z,69.10
2019-02-25T03:27:52.758Z,69.30
2019-02-25T03:30:22.583Z,69.30
2019-02-25T03:32:50.861Z,69.60
2019-02-25T03:35:19.060Z,69.70
2019-02-25T03:37:47.353Z,69.60
2019-02-25T03:40:17.627Z,69.90
2019-02-25T03:42:45.814Z,70.00
2019-02-25T03:45:15.737Z,70.20
2019-02-25T03:47:43.904Z,70.30
2019-02-25T03:50:12.323Z,70.50
2019-02-25T03:52:40.541Z,70.70
2019-02-25T03:55:14.260Z,70.70
2019-02-25T03:57:42.613Z,70.70
2019-02-25T04:00:19.494Z,70.50
2019-02-25T04:02:47.661Z,70.70
2019-02-25T04:05:15.979Z,70.80
2019-02-25T04:07:44.377Z,71.80
2019-02-25T04:10:12.876Z,71.70
2019-02-25T04:12:41.189Z,71.10
2019-02-25T04:15:15.461Z,71.60
2019-02-25T04:17:43.663Z,71.50
2019-02-25T04:20:13.523Z,71.80
2019-02-25T04:22:41.676Z,71.70
2019-02-25T04:25:09.962Z,72.00
2019-02-25T04:27:41.204Z,72.00
2019-02-25T04:30:12.795Z,72.10
2019-02-25T04:32:40.962Z,72.20
2019-02-25T04:35:09.936Z,71.70
2019-02-25T04:37:38.142Z,72.50
2019-02-25T04:40:08.301Z,72.70
2019-02-25T04:42:36.444Z,72.90
2019-02-25T04:45:07.078Z,73.20
2019-02-25T04:47:35.285Z,73.60
2019-02-25T04:50:03.794Z,73.60
2019-02-25T04:52:31.956Z,73.80
2019-02-25T04:55:00.384Z,73.90
2019-02-25T04:57:28.564Z,74.00
2019-02-25T04:59:56.807Z,74.10
2019-02-25T05:02:24.933Z,74.30
2019-02-25T05:04:53.164Z,74.20
2019-02-25T05:07:21.361Z,74.20
2019-02-25T05:09:49.693Z,74.30
2019-02-25T05:12:17.876Z,74.40
2019-02-25T05:14:46.270Z,75.30
2019-02-25T05:17:14.415Z,74.50
2019-02-25T05:19:42.620Z,74.60
2019-02-25T05:22:10.771Z,74.70
2019-02-25T05:24:39.033Z,74.80
2019-02-25T05:27:07.202Z,74.90
2019-02-25T05:29:35.544Z,75.00
2019-02-25T05:32:03.758Z,74.80
2019-02-25T05:34:31.955Z,74.70
2019-02-25T05:37:00.190Z,74.90
2019-02-25T05:39:28.304Z,75.00
2019-02-25T05:41:56.581Z,74.90
2019-02-25T05:44:24.843Z,74.80
2019-02-25T05:46:53.062Z,75.00
2019-02-25T05:49:21.223Z,75.00
2019-02-25T05:51:49.435Z,74.80
2019-02-25T05:54:17.594Z,74.80
2019-02-25T05:56:45.797Z,74.80
2019-02-25T05:59:13.973Z,74.70
2019-02-25T06:01:42.207Z,74.30
2019-02-25T06:04:10.386Z,74.30
2019-02-25T06:06:38.594Z,74.20
2019-02-25T06:09:06.773Z,74.00
2019-02-25T06:11:35.154Z,73.60
2019-02-25T06:14:04.388Z,73.50
2019-02-25T06:16:32.820Z,73.70
2019-02-25T06:19:01.256Z,73.60
2019-02-25T06:21:29.697Z,73.50
2019-02-25T06:23:57.960Z,73.80
2019-02-25T06:26:26.286Z,73.80
2019-02-25T06:28:54.517Z,73.40
2019-02-25T06:31:22.727Z,73.30
2019-02-25T06:33:51.025Z,73.60
2019-02-25T06:36:19.281Z,73.40
2019-02-25T06:38:47.573Z,73.20
2019-02-25T06:41:15.855Z,73.20
2019-02-25T06:43:44.057Z,72.70
2019-02-25T06:46:12.392Z,72.30
2019-02-25T06:48:40.573Z,72.30
2019-02-25T06:51:08.856Z,72.40
2019-02-25T06:53:37.170Z,72.30
2019-02-25T06:56:05.352Z,72.10
2019-02-25T06:58:33.530Z,71.90
2019-02-25T07:01:02.030Z,71.50
2019-02-25T07:03:30.215Z,70.90
2019-02-25T07:06:07.729Z,70.80
2019-02-25T07:09:07.779Z,70.60
2019-02-25T07:11:42.415Z,70.80
2019-02-25T07:14:33.109Z,70.90
2019-02-25T07:17:23.537Z,70.80
2019-02-25T07:20:23.291Z,70.70
2019-02-25T07:22:58.503Z,70.80
2019-02-25T07:25:42.343Z,71.40
2019-02-25T07:28:36.736Z,71.60
2019-02-25T07:31:15.992Z,72.00
2019-02-25T07:34:09.658Z,70.50
2019-02-25T07:37:00.179Z,69.90
2019-02-25T07:39:35.743Z,69.20
2019-02-25T07:42:22.143Z,68.80
2019-02-25T07:45:11.289Z,67.80
2019-02-25T07:47:50.796Z,66.20
2019-02-25T07:50:47.132Z,64.60
2019-02-25T07:53:30.374Z,62.50
2019-02-25T07:56:21.164Z,59.80
2019-02-25T07:59:10.265Z,58.50
2019-02-25T08:02:03.874Z,58.10
2019-02-25T08:05:06.547Z,58.40
2019-02-25T08:08:09.902Z,59.20
2019-02-25T08:10:48.389Z,57.60
2019-02-25T08:13:37.358Z,56.70
2019-02-25T08:16:23.775Z,55.90
2019-02-25T08:19:10.340Z,54.80
2019-02-25T08:22:04.066Z,54.90
2019-02-25T08:24:54.431Z,54.60
2019-02-25T08:27:35.481Z,54.40
2019-02-25T08:30:38.433Z,53.40
2019-02-25T08:33:15.288Z,52.90
2019-02-25T08:37:02.743Z,53.10
2019-02-25T08:39:47.548Z,51.10
2019-02-25T08:42:44.724Z,49.50
2019-02-25T08:45:22.885Z,49.20
2019-02-25T08:47:57.330Z,49.00
2019-02-25T08:50:25.573Z,47.90
2019-02-25T08:52:53.813Z,50.10
2019-02-25T08:55:21.976Z,51.40
2019-02-25T08:57:50.131Z,52.40
2019-02-25T09:00:18.352Z,51.70
2019-02-25T09:02:46.555Z,51.60
2019-02-25T09:05:14.812Z,51.80
2019-02-25T09:07:43.120Z,51.40
2019-02-25T09:10:13.449Z,50.50
2019-02-25T09:12:42.106Z,49.00
2019-02-25T09:15:10.867Z,48.00
2019-02-25T09:17:44.009Z,46.00
2019-02-25T09:20:13.484Z,46.20
2019-02-25T09:22:41.891Z,46.00
2019-02-25T09:25:10.447Z,46.10
2019-02-25T09:27:38.700Z,45.00
2019-02-25T09:30:12.357Z,45.30
2019-02-25T09:32:40.557Z,46.10
2019-02-25T09:35:08.982Z,45.90
2019-02-25T09:37:37.378Z,45.00
2019-02-25T09:40:08.166Z,42.90
2019-02-25T09:42:36.389Z,43.40
2019-02-25T09:45:06.020Z,45.20
2019-02-25T09:47:34.208Z,46.00
2019-02-25T09:50:02.431Z,46.40
2019-02-25T09:52:30.680Z,44.90
2019-02-25T09:54:58.889Z,45.40
2019-02-25T09:57:27.052Z,43.80
2019-02-25T09:59:55.325Z,43.30
2019-02-25T10:02:24.844Z,42.50
2019-02-25T10:04:53.172Z,43.10
2019-02-25T10:07:21.370Z,44.90
2019-02-25T10:09:49.560Z,45.90
2019-02-25T10:12:17.907Z,45.70
2019-02-25T10:14:46.173Z,44.70
2019-02-25T10:17:23.301Z,43.50
2019-02-25T10:19:44.463Z,43.30
2019-02-25T10:22:12.641Z,42.50
2019-02-25T10:24:40.827Z,41.50
2019-02-25T10:27:09.454Z,39.40
2019-02-25T10:29:37.627Z,39.20
2019-02-25T10:32:06.550Z,39.30
2019-02-25T10:34:34.947Z,41.40
2019-02-25T10:37:03.156Z,40.30
2019-02-25T10:39:31.363Z,40.60
2019-02-25T10:42:02.020Z,39.80
2019-02-25T10:44:31.734Z,39.90
2019-02-25T10:46:59.783Z,39.10
2019-02-25T10:49:29.399Z,39.30
2019-02-25T10:51:58.174Z,38.80
2019-02-25T10:54:26.382Z,37.80
2019-02-25T10:57:14.558Z,37.80
2019-02-25T10:59:42.733Z,36.90
2019-02-25T11:02:11.669Z,36.10
2019-02-25T11:04:41.191Z,33.50
2019-02-25T11:07:09.752Z,35.80
2019-02-25T11:10:07.007Z,37.40
2019-02-25T11:12:35.422Z,38.00
2019-02-25T11:15:05.271Z,38.30
2019-02-25T11:17:34.266Z,37.00
2019-02-25T11:20:03.701Z,37.50
2019-02-25T11:22:32.651Z,39.10
2019-02-25T11:25:00.898Z,40.20
2019-02-25T11:27:31.339Z,40.00
2019-02-25T11:29:59.335Z,40.00
2019-02-25T11:32:27.999Z,40.20
2019-02-25T11:34:56.255Z,39.70
2019-02-25T11:37:26.571Z,39.60
2019-02-25T11:39:55.323Z,39.80
2019-02-25T11:42:24.798Z,39.10
2019-02-25T11:44:54.267Z,38.30
2019-02-25T11:47:23.197Z,39.40
2019-02-25T11:49:51.369Z,40.80
2019-02-25T11:52:19.627Z,40.40
2019-02-25T11:54:47.918Z,41.30
2019-02-25T11:57:16.136Z,39.80
2019-02-25T11:59:44.478Z,40.70
2019-02-25T12:02:12.655Z,41.90
2019-02-25T12:04:40.885Z,43.00
2019-02-25T12:07:09.188Z,42.30
2019-02-25T12:09:37.404Z,42.50
2019-02-25T12:12:05.614Z,40.90
2019-02-25T12:14:33.969Z,42.50
2019-02-25T12:17:02.255Z,44.50
2019-02-25T12:19:30.505Z,43.80
2019-02-25T12:21:58.711Z,45.20
2019-02-25T12:24:26.894Z,46.00
2019-02-25T12:26:55.163Z,45.80
2019-02-25T12:29:23.405Z,45.40
2019-02-25T12:31:51.636Z,45.70
2019-02-25T12:34:19.991Z,46.10
2019-02-25T12:36:48.197Z,47.10
2019-02-25T12:39:16.482Z,48.20
2019-02-25T12:41:44.636Z,49.00
2019-02-25T12:44:12.888Z,49.20
2019-02-25T12:46:41.079Z,50.50
2019-02-25T12:49:09.410Z,50.10
2019-02-25T12:51:37.629Z,50.10
2019-02-25T12:54:06.011Z,49.90
2019-02-25T12:56:34.267Z,50.60
2019-02-25T12:59:02.648Z,52.10
2019-02-25T13:01:30.936Z,53.30
2019-02-25T13:03:59.172Z,54.20
2019-02-25T13:06:27.345Z,55.10
2019-02-25T13:08:55.585Z,55.60
2019-02-25T13:11:23.820Z,54.80
2019-02-25T13:13:52.031Z,53.90
2019-02-25T13:16:20.336Z,54.00
2019-02-25T13:18:48.477Z,54.80
2019-02-25T13:21:16.682Z,55.10
2019-02-25T13:23:44.938Z,55.70
2019-02-25T13:26:13.079Z,57.40
2019-02-25T13:28:41.249Z,58.30
2019-02-25T13:31:10.218Z,58.30
2019-02-25T13:33:38.879Z,58.40
2019-02-25T13:36:11.770Z,57.80
2019-02-25T13:38:39.975Z,58.90
2019-02-25T13:41:08.399Z,59.70
2019-02-25T13:43:36.637Z,60.60
2019-02-25T13:46:04.812Z,61.10
2019-02-25T13:48:33.026Z,60.40
2019-02-25T13:51:01.354Z,61.00
2019-02-25T13:53:29.569Z,62.80
2019-02-25T13:55:57.745Z,63.20
2019-02-25T13:58:25.977Z,63.00
2019-02-25T14:00:54.156Z,63.10
2019-02-25T14:03:22.339Z,63.70
2019-02-25T14:05:50.542Z,64.30
2019-02-25T14:08:18.840Z,64.70
2019-02-25T14:10:47.168Z,64.90
2019-02-25T14:13:15.409Z,64.80
2019-02-25T14:15:43.677Z,64.30
2019-02-25T14:18:11.960Z,64.20
2019-02-25T14:20:40.111Z,64.70
2019-02-25T14:23:08.410Z,65.20
2019-02-25T14:25:38.352Z,66.00
2019-02-25T14:28:08.238Z,65.70
2019-02-25T14:30:36.548Z,66.10
2019-02-25T14:33:04.745Z,66.50
2019-02-25T14:35:33.016Z,66.60
2019-02-25T14:38:07.587Z,66.40
2019-02-25T14:40:32.846Z,65.90
2019-02-25T14:43:04.071Z,66.30
2019-02-25T14:45:33.975Z,66.80
2019-02-25T14:48:03.249Z,68.30
2019-02-25T14:50:31.478Z,69.40
2019-02-25T14:53:00.737Z,70.10
2019-02-25T14:55:29.462Z,71.10
2019-02-25T14:57:59.966Z,71.30
2019-02-25T15:00:28.941Z,71.90
2019-02-25T15:02:57.960Z,71.90
2019-02-25T15:05:26.194Z,72.80
2019-02-25T15:07:54.411Z,73.70
2019-02-25T15:10:26.649Z,73.90
2019-02-25T15:12:56.511Z,74.40
2019-02-25T15:15:22.903Z,74.80
2019-02-25T15:17:52.724Z,75.80
2019-02-25T15:20:22.848Z,76.00
2019-02-25T15:22:51.187Z,76.40
2019-02-25T15:25:19.461Z,75.90
2019-02-25T15:27:47.711Z,76.10
2019-02-25T15:30:20.714Z,75.80
2019-02-25T15:32:55.688Z,75.90
2019-02-25T15:35:20.503Z,75.80
2019-02-25T15:37:51.230Z,76.00
2019-02-25T15:40:22.633Z,76.90
2019-02-25T15:43:02.274Z,77.10
2019-02-25T15:45:32.871Z,77.10
2019-02-25T15:48:01.720Z,77.10
2019-02-25T15:50:30.267Z,77.30
2019-02-25T15:53:00.890Z,78.60
2019-02-25T15:55:28.661Z,79.00
2019-02-25T15:57:56.912Z,79.60
2019-02-25T16:00:27.620Z,79.40
2019-02-25T16:02:56.891Z,80.10
2019-02-25T16:05:27.397Z,79.80
2019-02-25T16:08:00.655Z,79.00
2019-02-25T16:10:29.195Z,79.20
2019-02-25T16:12:57.840Z,79.40
2019-02-25T16:15:26.529Z,79.20
2019-02-25T16:17:54.677Z,79.70
2019-02-25T16:20:22.935Z,80.60
2019-02-25T16:22:51.114Z,81.30
2019-02-25T16:25:19.340Z,82.10
2019-02-25T16:27:49.856Z,82.10
2019-02-25T16:30:19.091Z,82.10
2019-02-25T16:32:48.465Z,82.90
2019-02-25T16:35:16.744Z,83.90
2019-02-25T16:37:45.330Z,83.90
2019-02-25T16:40:13.656Z,83.30
2019-02-25T16:42:42.061Z,83.50
2019-02-25T16:45:14.205Z,83.60
2019-02-25T16:47:42.478Z,83.50
2019-02-25T16:50:12.555Z,83.20
2019-02-25T16:52:42.897Z,82.60
2019-02-25T16:55:15.357Z,82.00
2019-02-25T16:57:43.527Z,82.10
2019-02-25T17:00:14.498Z,82.30
2019-02-25T17:02:44.754Z,83.10
2019-02-25T17:05:12.782Z,84.00
2019-02-25T17:07:42.625Z,84.30
2019-02-25T17:10:14.044Z,84.80
2019-02-25T17:12:43.698Z,85.50
2019-02-25T17:15:13.321Z,86.00
2019-02-25T17:17:41.528Z,85.80
2019-02-25T17:20:13.103Z,85.60
2019-02-25T17:22:41.662Z,85.80
2019-02-25T17:25:12.144Z,86.10
2019-02-25T17:27:40.453Z,85.90
2019-02-25T17:30:15.185Z,85.00
2019-02-25T17:32:44.141Z,84.90
2019-02-25T17:35:14.251Z,85.10
2019-02-25T17:37:42.492Z,85.50
2019-02-25T17:40:13.118Z,85.20
2019-02-25T17:42:41.000Z,84.70
2019-02-25T17:45:13.019Z,84.50
2019-02-25T17:47:41.925Z,84.40
2019-02-25T17:50:11.601Z,84.10
2019-02-25T17:52:40.913Z,84.30
2019-02-25T17:55:13.434Z,85.00
2019-02-25T17:57:41.656Z,85.10
2019-02-25T18:00:19.624Z,85.60
2019-02-25T18:02:47.928Z,84.60
2019-02-25T18:05:16.892Z,84.90
2019-02-25T18:07:46.508Z,85.10
2019-02-25T18:10:15.360Z,85.00
2019-02-25T18:12:43.631Z,85.10
2019-02-25T18:15:17.072Z,85.80
2019-02-25T18:17:47.120Z,86.20
2019-02-25T18:20:15.686Z,86.20
2019-02-25T18:22:43.982Z,85.80
2019-02-25T18:25:12.268Z,85.50
2019-02-25T18:27:41.413Z,85.20
2019-02-25T18:30:10.015Z,85.30
2019-02-25T18:32:39.117Z,85.40
2019-02-25T18:35:08.627Z,85.70
2019-02-25T18:37:37.653Z,85.90
2019-02-25T18:40:06.620Z,86.10
2019-02-25T18:42:36.472Z,85.60
2019-02-25T18:45:08.603Z,85.50
2019-02-25T18:47:36.862Z,86.20
2019-02-25T18:50:07.943Z,86.10
2019-02-25T18:52:38.007Z,86.10
2019-02-25T18:55:08.954Z,85.80
2019-02-25T18:57:37.646Z,85.30
2019-02-25T19:00:08.499Z,85.70
2019-02-25T19:02:38.058Z,86.20
2019-02-25T19:05:10.533Z,86.70
2019-02-25T19:07:37.516Z,87.10
2019-02-25T19:10:05.790Z,87.30
2019-02-25T19:12:34.190Z,87.40
2019-02-25T19:15:04.428Z,87.00
2019-02-25T19:17:32.529Z,87.00
2019-02-25T19:20:00.988Z,86.60
2019-02-25T19:22:30.874Z,86.30
2019-02-25T19:24:59.088Z,85.70
2019-02-25T19:27:29.024Z,85.60
2019-02-25T19:30:00.184Z,85.60
2019-02-25T19:32:27.719Z,85.20
2019-02-25T19:34:56.762Z,85.00
2019-02-25T19:37:28.893Z,85.00
2019-02-25T19:39:56.249Z,85.50
2019-02-25T19:42:26.420Z,85.50
2019-02-25T19:44:56.274Z,85.50
2019-02-25T19:47:24.625Z,85.30
2019-02-25T19:49:52.906Z,85.20
2019-02-25T19:52:21.072Z,85.60
2019-02-25T19:54:50.702Z,85.90
2019-02-25T19:57:20.995Z,86.00
2019-02-25T19:59:50.583Z,86.30
2019-02-25T20:02:19.366Z,87.80
2019-02-25T20:04:50.160Z,87.30
2019-02-25T20:07:18.555Z,87.40
2019-02-25T20:09:47.947Z,87.00
2019-02-25T20:12:16.366Z,87.50
2019-02-25T20:14:46.595Z,87.50
2019-02-25T20:17:14.888Z,88.10
2019-02-25T20:19:44.039Z,88.80
2019-02-25T20:22:14.543Z,89.00
2019-02-25T20:24:46.020Z,89.10
2019-02-25T20:27:13.263Z,89.20
2019-02-25T20:29:42.442Z,89.30
2019-02-25T20:32:12.211Z,89.30
2019-02-25T20:34:40.917Z,89.40
2019-02-25T20:37:09.246Z,90.00
2019-02-25T20:39:38.661Z,90.30
2019-02-25T20:42:06.913Z,90.50
2019-02-25T20:44:35.536Z,90.70
2019-02-25T20:47:04.201Z,91.00
2019-02-25T20:49:32.729Z,91.20
2019-02-25T20:52:01.617Z,91.30
2019-02-25T20:54:29.804Z,91.20
2019-02-25T20:56:58.167Z,91.00
2019-02-25T20:59:28.086Z,90.90
2019-02-25T21:01:56.504Z,91.00
2019-02-25T21:04:24.790Z,91.10
2019-02-25T21:06:52.985Z,91.10
2019-02-25T21:09:21.321Z,91.10
2019-02-25T21:11:49.492Z,91.20
2019-02-25T21:14:17.695Z,91.20
2019-02-25T21:16:45.925Z,91.40
2019-02-25T21:19:15.561Z,91.50
2019-02-25T21:21:44.318Z,91.40
2019-02-25T21:24:13.570Z,91.20
2019-02-25T21:26:42.066Z,91.20
2019-02-25T21:29:10.219Z,91.40
2019-02-25T21:31:42.802Z,91.50
2019-02-25T21:34:08.916Z,91.60
2019-02-25T21:36:38.243Z,91.60
2019-02-25T21:39:10.047Z,91.40
2019-02-25T21:41:39.587Z,91.30
2019-02-25T21:44:08.922Z,91.50
2019-02-25T21:46:37.236Z,91.80
2019-02-25T21:49:06.617Z,91.90
2019-02-25T21:51:36.907Z,92.10
2019-02-25T21:54:06.770Z,92.20
2019-02-25T21:56:35.270Z,92.10
2019-02-25T21:59:03.496Z,92.00
2019-02-25T22:01:32.319Z,92.10
2019-02-25T22:04:01.295Z,92.20
2019-02-25T22:06:31.245Z,92.60
2019-02-25T22:09:00.835Z,92.30
2019-02-25T22:11:29.487Z,92.20
2019-02-25T22:13:57.813Z,92.30
2019-02-25T22:16:27.800Z,92.30
2019-02-25T22:18:56.605Z,92.00
2019-02-25T22:21:25.463Z,92.00
2019-02-25T22:23:56.167Z,92.00
2019-02-25T22:26:27.198Z,91.90
2019-02-25T22:28:55.408Z,92.40
2019-02-25T22:31:24.206Z,92.00
2019-02-25T22:33:52.377Z,91.90
2019-02-25T22:36:20.605Z,91.90
2019-02-25T22:38:48.829Z,91.90
2019-02-25T22:41:18.871Z,92.00
2019-02-25T22:43:48.223Z,92.10
2019-02-25T22:46:16.703Z,92.10
2019-02-25T22:48:47.113Z,92.20
2019-02-25T22:51:15.007Z,92.20
2019-02-25T22:53:43.241Z,91.90
2019-02-25T22:56:13.405Z,91.80
2019-02-25T22:58:42.964Z,91.90
2019-02-25T23:01:17.490Z,92.00
2019-02-25T23:03:45.545Z,92.00
2019-02-25T23:06:15.786Z,91.70
2019-02-25T23:08:46.443Z,91.60
2019-02-25T23:11:16.563Z,91.40
2019-02-25T23:13:45.726Z,91.30
2019-02-25T23:16:15.610Z,91.20
2019-02-25T23:18:44.550Z,91.10
2019-02-25T23:21:12.814Z,91.10
2019-02-25T23:23:41.016Z,91.30
2019-02-25T23:26:10.438Z,91.40
2019-02-25T23:28:39.001Z,91.50
2019-02-25T23:31:07.159Z,91.30
2019-02-25T23:33:38.131Z,91.30
2019-02-25T23:36:05.512Z,91.50
2019-02-25T23:38:33.695Z,91.50
2019-02-25T23:41:05.298Z,91.50
2019-02-25T23:43:35.962Z,91.50
2019-02-25T23:46:04.428Z,91.50
2019-02-25T23:48:33.687Z,91.50
2019-02-25T23:51:02.674Z,91.60
2019-02-25T23:53:32.765Z,91.60
2019-02-25T23:56:01.566Z,91.60
2019-02-25T23:58:29.911Z,91.60
